createdAt,value
2019-01-03T08:02:06.755Z,15.09
2019-01-03T08:04:36.750Z,6.91
2019-01-03T08:07:05.064Z,4.12
2019-01-03T08:09:32.659Z,4.45
2019-01-03T08:12:02.580Z,5.44
2019-01-03T08:14:42.136Z,7.61
2019-01-03T08:17:14.801Z,7.61
2019-01-03T08:19:43.773Z,7.45
2019-01-03T08:22:15.803Z,7.27
2019-01-03T08:24:50.014Z,7.29
2019-01-03T08:27:20.062Z,7.10
2019-01-03T08:29:49.175Z,6.90
2019-01-03T08:32:20.084Z,6.09
2019-01-03T08:35:03.591Z,6.09
2019-01-03T08:37:25.925Z,6.30
2019-01-03T08:40:03.089Z,6.74
2019-01-03T08:42:33.043Z,6.69
2019-01-03T08:45:14.449Z,6.75
2019-01-03T08:47:42.136Z,6.23
2019-01-03T08:50:09.204Z,6.13
2019-01-03T08:52:38.753Z,6.37
2019-01-03T08:55:29.797Z,6.18
2019-01-03T08:57:56.141Z,6.39
2019-01-03T09:03:10.884Z,5.95
2019-01-03T09:05:46.289Z,5.98
2019-01-03T09:08:25.734Z,6.15
2019-01-03T09:10:56.637Z,6.24
2019-01-03T09:13:23.456Z,6.47
2019-01-03T09:15:50.636Z,6.52
2019-01-03T09:18:17.992Z,6.58
2019-01-03T09:20:45.568Z,6.68
2019-01-03T09:23:17.922Z,6.97
2019-01-03T09:25:58.834Z,6.29
2019-01-03T09:28:31.900Z,6.38
2019-01-03T09:31:03.750Z,6.64
2019-01-03T09:33:37.685Z,6.64
2019-01-03T09:36:06.954Z,6.48
2019-01-03T09:38:48.371Z,6.34
2019-01-03T09:41:18.601Z,6.41
2019-01-03T09:43:53.203Z,6.40
2019-01-03T09:46:20.495Z,6.50
2019-01-03T09:48:48.406Z,6.90
2019-01-03T09:51:17.501Z,6.88
2019-01-03T09:53:47.015Z,6.51
2019-01-03T09:56:14.639Z,6.04
2019-01-03T09:58:42.495Z,5.81
2019-01-03T10:01:10.393Z,6.65
2019-01-03T10:03:39.942Z,7.12
2019-01-03T10:06:26.455Z,7.31
2019-01-03T10:08:55.478Z,6.99
2019-01-03T10:11:23.990Z,7.14
2019-01-03T10:13:54.060Z,7.36
2019-01-03T10:16:25.015Z,7.85
2019-01-03T10:18:53.347Z,7.56
2019-01-03T10:21:23.932Z,6.88
2019-01-03T10:23:58.546Z,6.67
2019-01-03T10:26:22.962Z,6.70
2019-01-03T10:28:52.485Z,6.86
2019-01-03T10:31:22.479Z,7.09
2019-01-03T10:33:51.310Z,6.51
2019-01-03T10:36:27.561Z,6.70
2019-01-03T10:38:54.182Z,6.71
2019-01-03T10:41:24.228Z,6.85
2019-01-03T10:43:50.813Z,7.35
2019-01-03T10:46:17.907Z,7.62
2019-01-03T10:48:47.516Z,7.62
2019-01-03T10:51:17.658Z,7.39
2019-01-03T10:53:47.711Z,7.30
2019-01-03T10:56:14.874Z,7.67
2019-01-03T10:58:42.245Z,8.03
2019-01-03T11:01:11.853Z,8.06
2019-01-03T11:03:39.507Z,7.91
2019-01-03T11:06:19.152Z,7.40
2019-01-03T11:08:49.776Z,7.69
2019-01-03T11:11:16.339Z,7.31
2019-01-03T11:13:44.272Z,7.35
2019-01-03T11:16:17.217Z,7.69
2019-01-03T11:18:44.377Z,7.66
2019-01-03T11:21:14.735Z,7.56
2019-01-03T11:23:45.121Z,7.49
2019-01-03T11:26:24.570Z,7.73
2019-01-03T11:28:51.508Z,7.39
2019-01-03T11:31:19.740Z,7.13
2019-01-03T11:33:46.800Z,7.10
2019-01-03T11:36:21.971Z,7.16
2019-01-03T11:38:48.737Z,7.68
2019-01-03T11:41:21.056Z,8.30
2019-01-03T11:43:53.470Z,8.52
2019-01-03T11:46:41.489Z,8.45
2019-01-03T11:49:12.372Z,8.25
2019-01-03T11:51:42.228Z,8.34
2019-01-03T11:54:12.256Z,8.34
2019-01-03T11:56:46.604Z,7.98
2019-01-03T11:59:27.460Z,7.62
2019-01-03T12:01:58.312Z,7.63
2019-01-03T12:04:29.445Z,7.67
2019-01-03T12:07:06.165Z,7.67
2019-01-03T12:09:36.041Z,7.67
2019-01-03T12:12:14.882Z,8.00
2019-01-03T12:14:40.406Z,7.92
2019-01-03T12:17:12.554Z,8.07
2019-01-03T12:19:41.131Z,8.28
2019-01-03T12:22:08.202Z,8.11
2019-01-03T12:24:36.735Z,7.81
2019-01-03T12:29:50.332Z,7.55
2019-01-03T12:32:21.302Z,7.68
2019-01-03T12:34:51.171Z,7.81
2019-01-03T12:37:22.050Z,8.31
2019-01-03T12:39:53.326Z,8.31
2019-01-03T12:42:31.342Z,7.69
2019-01-03T12:45:02.201Z,7.70
2019-01-03T12:50:18.105Z,7.77
2019-01-03T12:55:35.084Z,7.61
2019-01-03T12:58:02.211Z,8.09
2019-01-03T13:00:31.470Z,7.37
2019-01-03T13:03:04.638Z,7.26
2019-01-03T13:05:33.298Z,6.88
2019-01-03T13:08:02.588Z,6.71
2019-01-03T13:10:31.346Z,7.08
2019-01-03T13:13:01.522Z,7.13
2019-01-03T13:15:32.052Z,7.23
2019-01-03T13:18:02.900Z,6.87
2019-01-03T13:20:31.697Z,7.12
2019-01-03T13:22:58.865Z,7.40
2019-01-03T13:25:29.257Z,7.31
2019-01-03T13:28:04.030Z,7.35
2019-01-03T13:30:37.840Z,7.20
2019-01-03T13:33:14.687Z,7.10
2019-01-03T13:35:44.933Z,6.73
2019-01-03T13:38:13.580Z,6.24
2019-01-03T13:43:30.705Z,6.46
2019-01-03T13:46:00.468Z,6.75
2019-01-03T13:48:31.796Z,6.93
2019-01-03T13:51:05.448Z,6.91
2019-01-03T13:53:35.572Z,7.01
2019-01-03T13:56:11.553Z,6.96
2019-01-03T13:58:44.782Z,6.78
2019-01-03T14:01:14.596Z,6.81
2019-01-03T14:03:41.219Z,6.56
2019-01-03T14:06:13.343Z,6.72
2019-01-03T14:08:42.432Z,6.78
2019-01-03T14:11:11.454Z,6.48
2019-01-03T14:13:51.618Z,6.56
2019-01-03T14:16:21.932Z,6.29
2019-01-03T14:18:49.030Z,5.55
2019-01-03T14:21:16.924Z,5.76
2019-01-03T14:23:47.125Z,6.11
2019-01-03T14:29:03.481Z,6.36
2019-01-03T14:31:31.043Z,6.49
2019-01-03T14:34:00.117Z,6.46
2019-01-03T14:36:28.437Z,6.52
2019-01-03T14:38:59.660Z,6.54
2019-01-03T14:41:32.947Z,6.54
2019-01-03T14:44:05.297Z,6.62
2019-01-03T14:46:39.030Z,6.49
2019-01-03T14:49:06.139Z,6.18
2019-01-03T14:51:35.327Z,5.93
2019-01-03T14:54:05.178Z,5.90
2019-01-03T14:56:35.448Z,5.91
2019-01-03T14:59:04.351Z,5.83
2019-01-03T15:01:33.875Z,6.08
2019-01-03T15:04:03.454Z,6.09
2019-01-03T15:06:35.243Z,6.32
2019-01-03T15:09:03.910Z,6.30
2019-01-03T15:11:31.437Z,6.35
2019-01-03T15:13:59.025Z,6.40
2019-01-03T15:16:34.980Z,6.42
2019-01-03T15:19:06.363Z,6.42
2019-01-03T15:21:36.014Z,6.26
2019-01-03T15:24:07.176Z,6.31
2019-01-03T15:26:38.008Z,6.20
2019-01-03T15:29:11.227Z,6.21
2019-01-03T15:31:40.795Z,6.25
2019-01-03T15:34:08.071Z,6.27
2019-01-03T15:36:36.426Z,6.37
2019-01-03T15:39:08.173Z,6.44
2019-01-03T15:41:36.951Z,6.52
2019-01-03T15:44:08.038Z,6.58
2019-01-03T15:46:34.748Z,6.48
2019-01-03T15:49:06.227Z,6.51
2019-01-03T15:51:40.602Z,6.31
2019-01-03T15:54:24.176Z,6.24
2019-01-03T15:56:55.454Z,6.41
2019-01-03T15:59:27.792Z,6.55
2019-01-03T16:01:56.236Z,6.31
2019-01-03T16:04:23.759Z,6.08
2019-01-03T16:06:54.015Z,6.19
2019-01-03T16:12:09.532Z,6.43
2019-01-03T16:14:38.494Z,6.41
2019-01-03T16:17:10.177Z,6.31
2019-01-03T16:19:46.837Z,6.01
2019-01-03T16:22:17.459Z,6.08
2019-01-03T16:24:49.681Z,6.01
2019-01-03T16:30:06.869Z,6.34
2019-01-03T16:32:38.506Z,6.41
2019-01-03T16:35:10.262Z,6.42
2019-01-03T16:37:39.706Z,6.54
2019-01-03T16:40:08.827Z,6.53
2019-01-03T16:42:37.151Z,6.48
2019-01-03T16:45:07.352Z,6.34
2019-01-03T16:50:25.034Z,6.37
2019-01-03T16:52:56.313Z,6.16
2019-01-03T16:55:25.150Z,6.15
2019-01-03T16:57:55.554Z,6.13
2019-01-03T17:00:25.761Z,6.16
2019-01-03T17:02:52.113Z,6.16
2019-01-03T17:05:21.612Z,6.06
2019-01-03T17:07:50.967Z,6.03
2019-01-03T17:10:20.193Z,5.89
2019-01-03T17:12:49.836Z,5.77
2019-01-03T17:15:19.862Z,5.76
2019-01-03T17:17:53.674Z,5.67
2019-01-03T17:20:21.207Z,5.85
2019-01-03T17:22:51.396Z,6.07
2019-01-03T17:25:20.833Z,6.05
2019-01-03T17:27:53.511Z,5.85
2019-01-03T17:30:23.131Z,5.90
2019-01-03T17:32:59.570Z,5.81
2019-01-03T17:35:30.408Z,5.58
2019-01-03T17:37:58.707Z,5.38
2019-01-03T17:40:27.071Z,5.29
2019-01-03T17:43:08.060Z,5.41
2019-01-03T17:45:39.386Z,5.38
2019-01-03T17:48:11.456Z,5.50
2019-01-03T17:53:26.106Z,5.91
2019-01-03T17:55:54.260Z,6.07
2019-01-03T17:58:22.848Z,6.10
2019-01-03T18:06:25.246Z,6.16
2019-01-03T18:08:52.306Z,6.11
2019-01-03T18:11:19.413Z,6.07
2019-01-03T18:13:52.342Z,6.04
2019-01-03T18:16:21.663Z,5.96
2019-01-03T18:18:53.104Z,5.74
2019-01-03T18:21:20.322Z,5.83
2019-01-03T18:23:49.745Z,5.71
2019-01-03T18:26:16.445Z,5.51
2019-01-03T18:28:44.706Z,5.13
2019-01-03T18:31:15.250Z,5.09
2019-01-03T18:33:44.667Z,5.11
2019-01-03T18:36:11.798Z,5.05
2019-01-03T18:38:41.557Z,4.99
2019-01-03T18:41:09.050Z,4.72
2019-01-03T18:46:22.853Z,4.43
2019-01-03T18:54:28.464Z,4.22
2019-01-03T18:56:55.547Z,4.30
2019-01-03T18:59:26.354Z,4.26
2019-01-03T19:02:00.090Z,4.42
2019-01-03T19:04:34.080Z,4.66
2019-01-03T19:09:44.954Z,4.51
2019-01-03T19:12:13.925Z,4.80
2019-01-03T19:14:44.443Z,4.82
2019-01-03T19:20:04.248Z,4.97
2019-01-03T19:22:40.818Z,4.75
2019-01-03T19:25:11.210Z,4.85
2019-01-03T19:27:43.262Z,4.95
2019-01-03T19:30:23.694Z,4.99
2019-01-03T19:32:44.720Z,5.16
2019-01-03T19:35:13.879Z,5.17
2019-01-03T19:37:44.218Z,5.05
2019-01-03T19:40:14.276Z,4.97
2019-01-03T19:42:44.909Z,5.20
2019-01-03T19:45:12.860Z,5.05
2019-01-03T19:47:40.924Z,5.13
2019-01-03T19:50:08.737Z,5.02
2019-01-03T19:52:44.339Z,5.11
2019-01-03T19:55:11.992Z,5.18
2019-01-03T19:57:41.518Z,4.99
2019-01-03T20:00:09.746Z,4.66
2019-01-03T20:02:38.870Z,4.44
2019-01-03T20:05:15.965Z,4.53
2019-01-03T20:07:40.719Z,4.47
2019-01-03T20:10:10.497Z,4.48
2019-01-03T20:12:43.236Z,4.58
2019-01-03T20:15:16.809Z,4.55
2019-01-03T20:17:45.972Z,4.49
2019-01-03T20:20:17.981Z,4.51
2019-01-03T20:22:55.227Z,4.32
2019-01-03T20:25:27.039Z,4.15
2019-01-03T20:27:56.053Z,4.18
2019-01-03T20:30:27.604Z,4.00
2019-01-03T20:32:57.003Z,4.01
2019-01-03T20:35:25.713Z,4.01
2019-01-03T20:37:55.895Z,3.87
2019-01-03T20:40:25.729Z,3.76
2019-01-03T20:42:54.933Z,3.63
2019-01-03T20:45:21.771Z,3.57
2019-01-03T20:47:52.008Z,3.68
2019-01-03T20:50:22.322Z,3.99
2019-01-03T20:52:55.783Z,4.25
2019-01-03T20:55:26.149Z,4.16
2019-01-03T20:57:55.327Z,4.17
2019-01-03T21:00:21.915Z,4.04
2019-01-03T21:02:51.559Z,4.05
2019-01-03T21:05:21.324Z,4.12
2019-01-03T21:07:51.844Z,4.22
2019-01-03T21:10:24.880Z,4.18
2019-01-03T21:12:51.497Z,3.91
2019-01-03T21:15:22.146Z,3.79
2019-01-03T21:17:53.482Z,3.65
2019-01-03T21:20:20.327Z,3.56
2019-01-03T21:23:03.541Z,3.41
2019-01-03T21:25:32.241Z,3.43
2019-01-03T21:28:02.151Z,3.37
2019-01-03T21:30:35.952Z,3.27
2019-01-03T21:36:07.013Z,3.57
2019-01-03T21:38:34.001Z,3.55
2019-01-03T21:41:04.062Z,3.31
2019-01-03T21:43:33.247Z,3.35
2019-01-03T21:46:02.647Z,3.49
2019-01-03T21:48:32.254Z,3.43
2019-01-03T21:51:01.745Z,3.39
2019-01-03T21:53:30.870Z,3.18
2019-01-03T21:55:59.451Z,3.16
2019-01-03T21:58:30.674Z,2.97
2019-01-03T22:01:02.016Z,3.06
2019-01-03T22:03:29.417Z,3.07
2019-01-03T22:06:00.117Z,3.10
2019-01-03T22:08:29.531Z,2.90
2019-01-03T22:13:45.056Z,2.85
2019-01-03T22:16:16.959Z,2.77
2019-01-03T22:21:30.419Z,2.71
2019-01-03T22:24:06.702Z,2.87
2019-01-03T22:26:31.880Z,2.82
2019-01-03T22:29:04.585Z,2.80
2019-01-03T22:31:35.886Z,2.94
2019-01-03T22:34:05.304Z,3.19
2019-01-03T22:36:34.559Z,2.97
2019-01-03T22:39:02.428Z,2.95
2019-01-03T22:41:31.563Z,2.81
2019-01-03T22:44:01.390Z,2.73
2019-01-03T22:46:29.065Z,2.78
2019-01-03T22:48:59.839Z,2.78
2019-01-03T22:51:31.297Z,3.12
2019-01-03T22:54:00.996Z,2.94
2019-01-03T22:56:28.340Z,2.95
2019-01-03T22:58:59.059Z,3.00
2019-01-03T23:01:30.983Z,3.03
2019-01-03T23:04:00.644Z,3.11
2019-01-03T23:06:28.276Z,3.11
2019-01-03T23:08:55.779Z,3.07
2019-01-03T23:11:26.897Z,3.03
2019-01-03T23:13:55.793Z,2.77
2019-01-03T23:16:26.764Z,2.89
2019-01-03T23:18:54.838Z,3.09
2019-01-03T23:21:22.116Z,3.03
2019-01-03T23:26:36.265Z,3.20
2019-01-03T23:29:05.574Z,2.95
2019-01-03T23:31:42.830Z,3.04
2019-01-03T23:34:14.259Z,3.02
2019-01-03T23:36:44.799Z,3.02
2019-01-03T23:39:14.382Z,3.34
2019-01-03T23:41:42.216Z,3.12
2019-01-03T23:44:29.513Z,3.06
2019-01-03T23:46:56.103Z,3.14
2019-01-03T23:49:24.081Z,2.84
2019-01-03T23:51:53.153Z,2.76
2019-01-03T23:54:23.001Z,2.58
2019-01-03T23:56:52.969Z,2.59
2019-01-03T23:59:23.186Z,2.61
